UKV4134 EGPF-EGEC
Flight info
| Callsign | UKV4134 |
|---|---|
| Flight time | 0h 34m |
| Altitude | 10000 |
| Route | XEBAB |
| Aircraft | DHC6/L-SDGRY/S |
Departure
| Time | 2026-04-22 12:46 |
|---|---|
| Airport | Glasgow Airport (EGPF) |
Arrival
| Time | 2026-04-22 13:21 |
|---|---|
| Airport | Campbeltown Airport (EGEC) |
| Time | Latitude | Longitude | Altitude | Speed | Heading |
|---|---|---|---|---|---|
| 2026-04-22 12:22 | 55.86602 | -4.42990 | 28 ft | 0 kts | 254° |
| 2026-04-22 12:32 | 55.86606 | -4.42964 | 28 ft | 4 kts | 253° |
| 2026-04-22 12:33 | 55.86612 | -4.42918 | 26 ft | 4 kts | 271° |
| 2026-04-22 12:33 | 55.86603 | -4.42897 | 26 ft | 1 kts | 344° |
| 2026-04-22 12:33 | 55.86600 | -4.42896 | 26 ft | 0 kts | 344° |
| 2026-04-22 12:38 | 55.86602 | -4.42897 | 26 ft | 1 kts | 342° |
| 2026-04-22 12:38 | 55.86620 | -4.42907 | 26 ft | 4 kts | 343° |
| 2026-04-22 12:38 | 55.86657 | -4.42924 | 26 ft | 6 kts | 341° |
| 2026-04-22 12:39 | 55.86700 | -4.42949 | 26 ft | 7 kts | 340° |
| 2026-04-22 12:39 | 55.86812 | -4.43002 | 26 ft | 10 kts | 337° |
| 2026-04-22 12:39 | 55.86836 | -4.43111 | 26 ft | 13 kts | 253° |
| 2026-04-22 12:40 | 55.86804 | -4.43300 | 26 ft | 19 kts | 257° |
| 2026-04-22 12:40 | 55.86769 | -4.43518 | 26 ft | 17 kts | 250° |
| 2026-04-22 12:40 | 55.86740 | -4.43691 | 27 ft | 16 kts | 255° |
| 2026-04-22 12:40 | 55.86674 | -4.43872 | 26 ft | 20 kts | 218° |
| 2026-04-22 12:41 | 55.86601 | -4.44033 | 27 ft | 14 kts | 280° |
| 2026-04-22 12:41 | 55.86623 | -4.44225 | 26 ft | 17 kts | 272° |
| 2026-04-22 12:41 | 55.86685 | -4.44278 | 27 ft | 8 kts | 47° |
| 2026-04-22 12:41 | 55.86689 | -4.44271 | 27 ft | 0 kts | 48° |
| 2026-04-22 12:44 | 55.86757 | -4.44132 | 27 ft | 40 kts | 46° |
| 2026-04-22 12:44 | 55.87034 | -4.43611 | 40 ft | 72 kts | 48° |
| 2026-04-22 12:45 | 55.87404 | -4.42903 | 193 ft | 80 kts | 48° |
| 2026-04-22 12:45 | 55.87827 | -4.42248 | 370 ft | 80 kts | 40° |
| 2026-04-22 12:45 | 55.88317 | -4.41617 | 481 ft | 88 kts | 40° |
| 2026-04-22 12:45 | 55.88847 | -4.40919 | 518 ft | 107 kts | 39° |
| 2026-04-22 12:46 | 55.89194 | -4.40414 | 597 ft | 109 kts | 49° |
| 2026-04-22 12:46 | 55.89544 | -4.39033 | 952 ft | 100 kts | 85° |
| 2026-04-22 12:46 | 55.89462 | -4.38106 | 1190 ft | 101 kts | 107° |
| 2026-04-22 12:46 | 55.88932 | -4.37137 | 1372 ft | 118 kts | 145° |
| 2026-04-22 12:47 | 55.88379 | -4.36923 | 1518 ft | 127 kts | 171° |
| 2026-04-22 12:47 | 55.87302 | -4.37685 | 1865 ft | 138 kts | 212° |
| 2026-04-22 12:47 | 55.86714 | -4.39046 | 2132 ft | 144 kts | 240° |
| 2026-04-22 12:47 | 55.86359 | -4.40750 | 2383 ft | 145 kts | 255° |
| 2026-04-22 12:48 | 55.86023 | -4.42465 | 2607 ft | 147 kts | 241° |
| 2026-04-22 12:48 | 55.85645 | -4.44150 | 2807 ft | 149 kts | 252° |
| 2026-04-22 12:48 | 55.85349 | -4.45935 | 2989 ft | 151 kts | 249° |
| 2026-04-22 12:48 | 55.85029 | -4.47698 | 3178 ft | 150 kts | 249° |
| 2026-04-22 12:49 | 55.84825 | -4.48911 | 3299 ft | 153 kts | 249° |
| 2026-04-22 12:49 | 55.84534 | -4.50739 | 3487 ft | 154 kts | 249° |
| 2026-04-22 12:49 | 55.84080 | -4.52349 | 3658 ft | 142 kts | 227° |
| 2026-04-22 12:49 | 55.83546 | -4.53835 | 3855 ft | 144 kts | 230° |
| 2026-04-22 12:50 | 55.83014 | -4.55351 | 4025 ft | 145 kts | 230° |
| 2026-04-22 12:50 | 55.82475 | -4.56871 | 4215 ft | 145 kts | 230° |
| 2026-04-22 12:50 | 55.81925 | -4.58383 | 4401 ft | 146 kts | 230° |
| 2026-04-22 12:50 | 55.81375 | -4.59923 | 4582 ft | 149 kts | 230° |
| 2026-04-22 12:51 | 55.80809 | -4.61477 | 4769 ft | 151 kts | 229° |
| 2026-04-22 12:51 | 55.80236 | -4.63049 | 4952 ft | 152 kts | 230° |
| 2026-04-22 12:51 | 55.79634 | -4.64599 | 4996 ft | 152 kts | 221° |
| 2026-04-22 12:51 | 55.78808 | -4.65732 | 5002 ft | 151 kts | 208° |
| 2026-04-22 12:52 | 55.77936 | -4.66845 | 4996 ft | 156 kts | 209° |
| 2026-04-22 12:52 | 55.77059 | -4.67953 | 4996 ft | 155 kts | 208° |
| 2026-04-22 12:52 | 55.76178 | -4.69075 | 5002 ft | 152 kts | 208° |
| 2026-04-22 12:52 | 55.75334 | -4.70155 | 4992 ft | 150 kts | 209° |
| 2026-04-22 12:53 | 55.74473 | -4.71243 | 4996 ft | 150 kts | 208° |
| 2026-04-22 12:53 | 55.73623 | -4.72322 | 4999 ft | 151 kts | 208° |
| 2026-04-22 12:53 | 55.72755 | -4.73443 | 4988 ft | 156 kts | 210° |
| 2026-04-22 12:53 | 55.71875 | -4.74547 | 4952 ft | 156 kts | 210° |
| 2026-04-22 12:54 | 55.71109 | -4.75955 | 4962 ft | 158 kts | 223° |
| 2026-04-22 12:54 | 55.70398 | -4.77432 | 4964 ft | 160 kts | 222° |
| 2026-04-22 12:54 | 55.69675 | -4.78938 | 4963 ft | 161 kts | 223° |
| 2026-04-22 12:54 | 55.68954 | -4.80440 | 4956 ft | 159 kts | 224° |
| 2026-04-22 12:55 | 55.68249 | -4.81927 | 4947 ft | 156 kts | 222° |
| 2026-04-22 12:55 | 55.67544 | -4.83372 | 4955 ft | 155 kts | 222° |
| 2026-04-22 12:55 | 55.66832 | -4.84852 | 4959 ft | 159 kts | 223° |
| 2026-04-22 12:55 | 55.66115 | -4.86332 | 4949 ft | 156 kts | 223° |
| 2026-04-22 12:56 | 55.65415 | -4.87784 | 4945 ft | 154 kts | 223° |
| 2026-04-22 12:56 | 55.64726 | -4.89223 | 4947 ft | 153 kts | 223° |
| 2026-04-22 12:56 | 55.64035 | -4.90655 | 4946 ft | 153 kts | 223° |
| 2026-04-22 12:56 | 55.63347 | -4.92082 | 4941 ft | 153 kts | 223° |
| 2026-04-22 12:57 | 55.62662 | -4.93503 | 4943 ft | 152 kts | 223° |
| 2026-04-22 12:57 | 55.61975 | -4.94922 | 4945 ft | 152 kts | 223° |
| 2026-04-22 12:57 | 55.61288 | -4.96339 | 4947 ft | 152 kts | 222° |
| 2026-04-22 12:57 | 55.60597 | -4.97758 | 4941 ft | 152 kts | 222° |
| 2026-04-22 12:58 | 55.59907 | -4.99183 | 4942 ft | 153 kts | 223° |
| 2026-04-22 12:58 | 55.59219 | -5.00606 | 4946 ft | 152 kts | 223° |
| 2026-04-22 12:58 | 55.58535 | -5.02024 | 4950 ft | 151 kts | 226° |
| 2026-04-22 12:58 | 55.58321 | -5.03863 | 4944 ft | 161 kts | 274° |
| 2026-04-22 12:59 | 55.58487 | -5.05836 | 4944 ft | 163 kts | 273° |
| 2026-04-22 12:59 | 55.58633 | -5.07828 | 4947 ft | 164 kts | 274° |
| 2026-04-22 12:59 | 55.58779 | -5.09833 | 4947 ft | 165 kts | 274° |
| 2026-04-22 12:59 | 55.58923 | -5.11843 | 4940 ft | 165 kts | 274° |
| 2026-04-22 13:00 | 55.59072 | -5.13858 | 4941 ft | 166 kts | 274° |
| 2026-04-22 13:00 | 55.59227 | -5.15877 | 4947 ft | 167 kts | 273° |
| 2026-04-22 13:00 | 55.59380 | -5.17925 | 4946 ft | 169 kts | 274° |
| 2026-04-22 13:00 | 55.59529 | -5.19981 | 4939 ft | 168 kts | 273° |
| 2026-04-22 13:01 | 55.59680 | -5.22031 | 4941 ft | 167 kts | 274° |
| 2026-04-22 13:01 | 55.59830 | -5.24073 | 4948 ft | 168 kts | 274° |
| 2026-04-22 13:01 | 55.59982 | -5.26161 | 4949 ft | 173 kts | 273° |
| 2026-04-22 13:01 | 55.60140 | -5.28296 | 4950 ft | 176 kts | 274° |
| 2026-04-22 13:02 | 55.60302 | -5.30440 | 4939 ft | 175 kts | 273° |
| 2026-04-22 13:02 | 55.60390 | -5.32592 | 4930 ft | 175 kts | 267° |
| 2026-04-22 13:02 | 55.60437 | -5.34720 | 4932 ft | 172 kts | 268° |
| 2026-04-22 13:02 | 55.60484 | -5.36824 | 4935 ft | 170 kts | 267° |
| 2026-04-22 13:03 | 55.60541 | -5.38920 | 4936 ft | 172 kts | 268° |
| 2026-04-22 13:03 | 55.60601 | -5.41025 | 4934 ft | 170 kts | 268° |
| 2026-04-22 13:03 | 55.60656 | -5.43105 | 4931 ft | 169 kts | 267° |
| 2026-04-22 13:03 | 55.60704 | -5.45179 | 4936 ft | 168 kts | 267° |
| 2026-04-22 13:04 | 55.60754 | -5.47267 | 4861 ft | 171 kts | 267° |
| 2026-04-22 13:04 | 55.60806 | -5.49283 | 4780 ft | 159 kts | 268° |
| 2026-04-22 13:04 | 55.60850 | -5.51213 | 4687 ft | 156 kts | 267° |
| 2026-04-22 13:04 | 55.60890 | -5.53143 | 4606 ft | 158 kts | 266° |
| 2026-04-22 13:05 | 55.60935 | -5.55109 | 4524 ft | 162 kts | 268° |
| 2026-04-22 13:05 | 55.61003 | -5.57116 | 4447 ft | 165 kts | 267° |
| 2026-04-22 13:05 | 55.61063 | -5.59157 | 4366 ft | 166 kts | 268° |
| 2026-04-22 13:05 | 55.61117 | -5.61216 | 4297 ft | 169 kts | 268° |
| 2026-04-22 13:06 | 55.61155 | -5.63089 | 4222 ft | 167 kts | 267° |
| 2026-04-22 13:06 | 55.61196 | -5.65100 | 4151 ft | 161 kts | 267° |
| 2026-04-22 13:06 | 55.61247 | -5.67070 | 4067 ft | 159 kts | 267° |
| 2026-04-22 13:06 | 55.61308 | -5.69000 | 3984 ft | 156 kts | 267° |
| 2026-04-22 13:07 | 55.61366 | -5.70916 | 3909 ft | 154 kts | 263° |
| 2026-04-22 13:07 | 55.61007 | -5.72558 | 3818 ft | 140 kts | 227° |
| 2026-04-22 13:07 | 55.60569 | -5.74131 | 3734 ft | 145 kts | 240° |
| 2026-04-22 13:07 | 55.60177 | -5.75778 | 3663 ft | 145 kts | 238° |
| 2026-04-22 13:08 | 55.59785 | -5.77430 | 3581 ft | 146 kts | 238° |
| 2026-04-22 13:08 | 55.59383 | -5.79084 | 3502 ft | 146 kts | 236° |
| 2026-04-22 13:08 | 55.58912 | -5.80656 | 3417 ft | 144 kts | 231° |
| 2026-04-22 13:08 | 55.58384 | -5.82150 | 3345 ft | 143 kts | 229° |
| 2026-04-22 13:09 | 55.57852 | -5.83649 | 3265 ft | 146 kts | 229° |
| 2026-04-22 13:09 | 55.57307 | -5.85182 | 3171 ft | 149 kts | 229° |
| 2026-04-22 13:09 | 55.56752 | -5.86750 | 3000 ft | 150 kts | 230° |
| 2026-04-22 13:09 | 55.56194 | -5.88287 | 2824 ft | 147 kts | 229° |
| 2026-04-22 13:10 | 55.55619 | -5.89714 | 2623 ft | 141 kts | 220° |
| 2026-04-22 13:10 | 55.54948 | -5.90973 | 2451 ft | 141 kts | 219° |
| 2026-04-22 13:10 | 55.54283 | -5.92260 | 2294 ft | 141 kts | 219° |
| 2026-04-22 13:10 | 55.53608 | -5.93559 | 2165 ft | 146 kts | 219° |
| 2026-04-22 13:11 | 55.52907 | -5.94884 | 2035 ft | 149 kts | 219° |
| 2026-04-22 13:11 | 55.52212 | -5.96190 | 2016 ft | 142 kts | 219° |
| 2026-04-22 13:11 | 55.51545 | -5.97445 | 2011 ft | 139 kts | 220° |
| 2026-04-22 13:11 | 55.50814 | -5.98387 | 1998 ft | 123 kts | 181° |
| 2026-04-22 13:12 | 55.49991 | -5.98546 | 1998 ft | 118 kts | 179° |
| 2026-04-22 13:12 | 55.49199 | -5.98780 | 2000 ft | 114 kts | 178° |
| 2026-04-22 13:12 | 55.48420 | -5.98958 | 1992 ft | 109 kts | 171° |
| 2026-04-22 13:12 | 55.47864 | -5.98414 | 1982 ft | 93 kts | 108° |
| 2026-04-22 13:13 | 55.47900 | -5.97331 | 2000 ft | 89 kts | 88° |
| 2026-04-22 13:13 | 55.47835 | -5.96209 | 1925 ft | 94 kts | 97° |
| 2026-04-22 13:13 | 55.47783 | -5.95035 | 1890 ft | 95 kts | 95° |
| 2026-04-22 13:13 | 55.47682 | -5.93879 | 1832 ft | 96 kts | 101° |
| 2026-04-22 13:14 | 55.47547 | -5.92733 | 1817 ft | 93 kts | 102° |
| 2026-04-22 13:14 | 55.47418 | -5.91673 | 1854 ft | 88 kts | 101° |
| 2026-04-22 13:14 | 55.47284 | -5.90641 | 1888 ft | 86 kts | 104° |
| 2026-04-22 13:14 | 55.47126 | -5.89615 | 1863 ft | 89 kts | 103° |
| 2026-04-22 13:15 | 55.46969 | -5.88601 | 1909 ft | 80 kts | 104° |
| 2026-04-22 13:15 | 55.46818 | -5.87657 | 1842 ft | 82 kts | 104° |
| 2026-04-22 13:15 | 55.46682 | -5.86732 | 1811 ft | 73 kts | 104° |
| 2026-04-22 13:15 | 55.46554 | -5.85882 | 1732 ft | 70 kts | 103° |
| 2026-04-22 13:16 | 55.46405 | -5.85070 | 1651 ft | 70 kts | 106° |
| 2026-04-22 13:16 | 55.46238 | -5.84261 | 1558 ft | 70 kts | 106° |
| 2026-04-22 13:16 | 55.46075 | -5.83446 | 1464 ft | 71 kts | 105° |
| 2026-04-22 13:16 | 55.45921 | -5.82623 | 1371 ft | 70 kts | 104° |
| 2026-04-22 13:17 | 55.45802 | -5.81791 | 1276 ft | 71 kts | 101° |
| 2026-04-22 13:17 | 55.45686 | -5.80956 | 1184 ft | 70 kts | 100° |
| 2026-04-22 13:17 | 55.45578 | -5.80116 | 1074 ft | 70 kts | 101° |
| 2026-04-22 13:17 | 55.45437 | -5.79283 | 966 ft | 71 kts | 105° |
| 2026-04-22 13:18 | 55.45304 | -5.78448 | 872 ft | 71 kts | 103° |
| 2026-04-22 13:18 | 55.45172 | -5.77607 | 780 ft | 71 kts | 103° |
| 2026-04-22 13:18 | 55.45018 | -5.76774 | 676 ft | 72 kts | 104° |
| 2026-04-22 13:18 | 55.44862 | -5.75933 | 660 ft | 68 kts | 104° |
| 2026-04-22 13:19 | 55.44692 | -5.75102 | 622 ft | 78 kts | 103° |
| 2026-04-22 13:19 | 55.44581 | -5.74114 | 627 ft | 87 kts | 98° |
| 2026-04-22 13:19 | 55.44441 | -5.73102 | 593 ft | 80 kts | 100° |
| 2026-04-22 13:19 | 55.44323 | -5.72300 | 402 ft | 62 kts | 98° |
| 2026-04-22 13:20 | 55.44199 | -5.71555 | 297 ft | 65 kts | 99° |
| 2026-04-22 13:20 | 55.44087 | -5.70803 | 189 ft | 59 kts | 99° |
| 2026-04-22 13:20 | 55.43965 | -5.70058 | 114 ft | 66 kts | 100° |
| 2026-04-22 13:20 | 55.43845 | -5.69327 | 56 ft | 54 kts | 99° |
| 2026-04-22 13:21 | 55.43776 | -5.68845 | 36 ft | 21 kts | 105° |
| 2026-04-22 13:21 | 55.43734 | -5.68637 | 35 ft | 16 kts | 112° |
| 2026-04-22 13:21 | 55.43714 | -5.68539 | 36 ft | 0 kts | 103° |
| 2026-04-22 13:21 | 55.43705 | -5.68484 | 37 ft | 13 kts | 104° |
| 2026-04-22 13:22 | 55.43673 | -5.68288 | 38 ft | 16 kts | 109° |
| 2026-04-22 13:22 | 55.43641 | -5.68131 | 40 ft | 12 kts | 110° |
| 2026-04-22 13:22 | 55.43619 | -5.68010 | 40 ft | 10 kts | 107° |
| 2026-04-22 13:22 | 55.43601 | -5.67887 | 40 ft | 13 kts | 104° |
| 2026-04-22 13:23 | 55.43578 | -5.67723 | 41 ft | 14 kts | 106° |
| 2026-04-22 13:23 | 55.43495 | -5.67676 | 40 ft | 17 kts | 196° |
| 2026-04-22 13:23 | 55.43396 | -5.67630 | 41 ft | 16 kts | 107° |
| 2026-04-22 13:23 | 55.43372 | -5.67462 | 42 ft | 12 kts | 103° |
| 2026-04-22 13:24 | 55.43346 | -5.67318 | 42 ft | 14 kts | 104° |
| 2026-04-22 13:24 | 55.43319 | -5.67131 | 43 ft | 18 kts | 105° |
| 2026-04-22 13:24 | 55.43285 | -5.66919 | 43 ft | 17 kts | 107° |
| 2026-04-22 13:24 | 55.43254 | -5.66739 | 44 ft | 14 kts | 107° |
| 2026-04-22 13:25 | 55.43228 | -5.66596 | 44 ft | 12 kts | 110° |
| 2026-04-22 13:25 | 55.43160 | -5.66572 | 44 ft | 13 kts | 239° |
| 2026-04-22 13:25 | 55.43139 | -5.66692 | 44 ft | 12 kts | 199° |
| 2026-04-22 13:25 | 55.43090 | -5.66679 | 44 ft | 6 kts | 263° |
| 2026-04-22 13:26 | 55.43090 | -5.66684 | 44 ft | 0 kts | 279° |